createdAt,value
2022-07-29T00:00:21.865Z,24.31
2022-07-29T00:00:54.129Z,24.27
2022-07-29T00:01:26.041Z,24.32
2022-07-29T00:01:58.050Z,24.24
2022-07-29T00:02:30.439Z,24.05
2022-07-29T00:03:03.935Z,23.81
2022-07-29T00:03:35.910Z,23.89
2022-07-29T00:04:13.459Z,23.91
2022-07-29T00:04:45.788Z,24.01
2022-07-29T00:05:17.929Z,24.04
2022-07-29T00:05:49.837Z,23.94
2022-07-29T00:06:22.080Z,24.04
2022-07-29T00:06:53.974Z,24.04
2022-07-29T00:07:26.172Z,24.03
2022-07-29T00:07:58.159Z,24.02
2022-07-29T00:08:30.102Z,23.90
2022-07-29T00:09:02.019Z,23.83
2022-07-29T00:09:34.105Z,23.85
2022-07-29T00:10:23.526Z,23.94
2022-07-29T00:10:55.489Z,23.88
2022-07-29T00:11:27.703Z,23.89
2022-07-29T00:12:02.034Z,24.04
2022-07-29T00:12:34.000Z,24.06
2022-07-29T00:13:06.609Z,24.09
2022-07-29T00:13:38.739Z,24.12
2022-07-29T00:14:10.954Z,24.08
2022-07-29T00:14:42.953Z,24.08
2022-07-29T00:15:16.309Z,24.05
2022-07-29T00:15:48.275Z,24.07
2022-07-29T00:16:20.258Z,24.03
2022-07-29T00:16:52.622Z,23.95
2022-07-29T00:17:25.409Z,23.91
2022-07-29T00:17:57.374Z,24.02
2022-07-29T00:18:29.289Z,23.98
2022-07-29T00:19:02.614Z,23.86
2022-07-29T00:19:35.263Z,23.84
2022-07-29T00:20:07.997Z,23.87
2022-07-29T00:20:39.919Z,23.90
2022-07-29T00:21:11.843Z,23.91
2022-07-29T00:21:43.812Z,23.89
2022-07-29T00:22:16.198Z,23.79
2022-07-29T00:22:48.400Z,23.84
2022-07-29T00:23:20.341Z,23.89
2022-07-29T00:23:52.345Z,23.95
2022-07-29T00:24:24.211Z,23.94
2022-07-29T00:24:56.134Z,23.96
2022-07-29T00:25:28.253Z,24.02
2022-07-29T00:26:00.150Z,24.00
2022-07-29T00:26:33.554Z,23.91
2022-07-29T00:27:05.501Z,23.91
2022-07-29T00:27:37.961Z,23.94
2022-07-29T00:28:09.941Z,23.94
2022-07-29T00:28:41.887Z,23.98
2022-07-29T00:30:06.948Z,23.85
2022-07-29T00:30:38.992Z,23.96
2022-07-29T00:31:10.943Z,23.91
2022-07-29T00:31:42.977Z,23.96
2022-07-29T00:32:15.039Z,23.91
2022-07-29T00:32:47.945Z,23.77
2022-07-29T00:33:20.144Z,23.78
2022-07-29T00:33:52.053Z,23.88
2022-07-29T00:34:42.677Z,23.92
2022-07-29T00:35:33.653Z,23.87
2022-07-29T00:36:05.707Z,23.87
2022-07-29T00:36:37.595Z,23.88
2022-07-29T00:37:09.491Z,23.92
2022-07-29T00:37:41.423Z,23.93
2022-07-29T00:38:15.095Z,23.89
2022-07-29T00:38:47.110Z,23.91
2022-07-29T00:39:19.117Z,23.85
2022-07-29T00:39:51.611Z,23.81
2022-07-29T00:40:23.812Z,23.80
2022-07-29T00:40:55.747Z,23.75
2022-07-29T00:41:27.653Z,23.72
2022-07-29T00:41:59.652Z,23.59
2022-07-29T00:42:31.572Z,23.68
2022-07-29T00:43:03.679Z,23.74
2022-07-29T00:43:35.952Z,23.80
2022-07-29T00:44:07.855Z,23.84
2022-07-29T00:44:42.618Z,23.83
2022-07-29T00:45:15.248Z,23.86
2022-07-29T00:45:47.274Z,23.87
2022-07-29T00:46:19.270Z,23.96
2022-07-29T00:46:51.289Z,23.97
2022-07-29T00:47:23.297Z,24.02
2022-07-29T00:47:55.292Z,23.90
2022-07-29T00:48:27.185Z,23.79
2022-07-29T00:48:59.469Z,23.86
2022-07-29T00:49:31.502Z,23.86
2022-07-29T00:50:05.808Z,23.86
2022-07-29T00:50:38.976Z,23.80
2022-07-29T00:51:12.159Z,23.77
2022-07-29T00:51:44.128Z,23.89
2022-07-29T00:52:17.086Z,23.92
2022-07-29T00:52:49.630Z,23.85
2022-07-29T00:53:22.482Z,23.86
2022-07-29T00:53:55.052Z,23.90
2022-07-29T00:54:27.955Z,23.84
2022-07-29T00:55:01.726Z,23.73
2022-07-29T00:55:36.485Z,23.67
2022-07-29T00:56:08.463Z,23.69
2022-07-29T00:56:40.371Z,23.74
2022-07-29T00:57:13.012Z,23.71
2022-07-29T00:57:46.353Z,23.77
2022-07-29T00:58:18.315Z,23.84
2022-07-29T00:58:52.559Z,23.81
2022-07-29T00:59:24.654Z,23.83
2022-07-29T01:00:10.812Z,23.86
2022-07-29T01:00:42.950Z,23.82
2022-07-29T01:01:17.459Z,23.75
2022-07-29T01:01:49.542Z,23.75
2022-07-29T01:02:21.608Z,23.84
2022-07-29T01:02:53.878Z,23.86
2022-07-29T01:03:25.899Z,23.90
2022-07-29T01:03:57.891Z,23.93
2022-07-29T01:04:30.841Z,23.94
2022-07-29T01:05:04.916Z,23.94
2022-07-29T01:05:50.811Z,23.88
2022-07-29T01:06:25.082Z,23.77
2022-07-29T01:06:57.093Z,23.85
2022-07-29T01:07:31.035Z,23.81
2022-07-29T01:08:03.873Z,23.85
2022-07-29T01:08:36.962Z,23.91
2022-07-29T01:09:10.594Z,23.87
2022-07-29T01:09:46.832Z,23.87
2022-07-29T01:10:22.198Z,23.99
2022-07-29T01:10:55.882Z,24.05
2022-07-29T01:11:28.529Z,24.08
2022-07-29T01:12:03.519Z,24.02
2022-07-29T01:12:37.894Z,24.04
2022-07-29T01:13:10.733Z,23.99
2022-07-29T01:13:44.500Z,23.90
2022-07-29T01:14:17.517Z,23.78
2022-07-29T01:14:51.312Z,23.78
2022-07-29T01:15:23.507Z,23.84
2022-07-29T01:16:00.233Z,23.86
2022-07-29T01:16:35.474Z,23.92
2022-07-29T01:17:33.287Z,23.92
2022-07-29T01:18:13.066Z,23.90
2022-07-29T01:18:55.010Z,23.87
2022-07-29T01:19:59.891Z,23.77
2022-07-29T01:20:46.734Z,23.81
2022-07-29T01:21:39.993Z,23.87
2022-07-29T01:22:29.956Z,23.93
2022-07-29T01:23:07.822Z,23.91
2022-07-29T01:24:10.753Z,23.92
2022-07-29T01:24:51.636Z,23.96
2022-07-29T01:25:50.789Z,24.03
2022-07-29T01:26:38.518Z,24.02
2022-07-29T01:27:36.470Z,23.91
2022-07-29T01:28:46.399Z,23.85
2022-07-29T01:29:53.976Z,23.90
2022-07-29T01:30:28.198Z,23.87
2022-07-29T01:31:03.615Z,23.91
2022-07-29T01:31:59.031Z,23.92
2022-07-29T01:32:36.551Z,23.97
2022-07-29T01:33:32.484Z,23.98
2022-07-29T01:34:09.052Z,23.88
2022-07-29T01:34:49.796Z,23.95
2022-07-29T01:35:26.184Z,23.97
2022-07-29T01:35:59.990Z,24.02
2022-07-29T01:36:55.366Z,24.06
2022-07-29T01:37:46.343Z,24.05
2022-07-29T01:38:23.265Z,24.02
2022-07-29T01:39:19.561Z,23.89
2022-07-29T01:39:56.104Z,23.93
2022-07-29T01:40:41.159Z,24.02
2022-07-29T01:41:17.412Z,24.08
2022-07-29T01:42:03.380Z,24.05
2022-07-29T01:42:39.175Z,24.07
2022-07-29T01:43:14.527Z,24.04
2022-07-29T01:44:25.124Z,24.05
2022-07-29T01:45:02.979Z,24.12
2022-07-29T01:46:01.430Z,24.10
2022-07-29T01:46:36.874Z,24.05
2022-07-29T01:47:15.132Z,24.04
2022-07-29T01:47:52.986Z,24.02
2022-07-29T01:48:28.087Z,24.12
2022-07-29T01:49:23.108Z,24.15
2022-07-29T01:49:59.400Z,23.93
2022-07-29T01:50:36.128Z,24.01
2022-07-29T01:51:18.795Z,24.09
2022-07-29T01:51:54.512Z,24.09
2022-07-29T01:52:34.919Z,24.10
2022-07-29T01:53:10.411Z,24.08
2022-07-29T01:54:09.839Z,24.04
2022-07-29T01:54:47.096Z,24.02
2022-07-29T01:55:23.608Z,24.06
2022-07-29T01:55:59.101Z,24.08
2022-07-29T01:56:34.774Z,24.12
2022-07-29T01:57:09.434Z,24.15
2022-07-29T01:57:45.155Z,24.16
2022-07-29T01:58:20.239Z,24.18
2022-07-29T01:58:54.500Z,24.18
2022-07-29T01:59:27.255Z,24.19
2022-07-29T02:00:01.871Z,24.23
2022-07-29T02:00:46.227Z,24.17
2022-07-29T02:01:20.755Z,24.15
2022-07-29T02:01:55.479Z,24.10
2022-07-29T02:02:29.000Z,24.14
2022-07-29T02:03:06.585Z,24.19
2022-07-29T02:03:40.104Z,24.25
2022-07-29T02:04:29.274Z,24.26
2022-07-29T02:05:04.461Z,24.26
2022-07-29T02:05:38.808Z,24.16
2022-07-29T02:06:12.592Z,24.16
2022-07-29T02:06:46.788Z,24.16
2022-07-29T02:07:22.185Z,24.18
2022-07-29T02:07:56.755Z,24.21
2022-07-29T02:08:30.235Z,24.21
2022-07-29T02:09:03.697Z,24.16
2022-07-29T02:09:38.818Z,24.17
2022-07-29T02:10:13.352Z,24.09
2022-07-29T02:10:46.819Z,24.06
2022-07-29T02:11:19.193Z,24.11
2022-07-29T02:11:54.433Z,23.97
2022-07-29T02:12:28.909Z,24.00
2022-07-29T02:13:02.260Z,24.01
2022-07-29T02:13:36.897Z,24.02
2022-07-29T02:14:13.423Z,24.09
2022-07-29T02:14:49.236Z,24.08
2022-07-29T02:15:22.584Z,24.00
2022-07-29T02:15:56.359Z,23.98
2022-07-29T02:16:31.876Z,23.98
2022-07-29T02:17:05.095Z,24.03
2022-07-29T02:17:44.851Z,24.02
2022-07-29T02:18:19.601Z,24.04
2022-07-29T02:18:54.796Z,24.07
2022-07-29T02:19:28.514Z,24.05
2022-07-29T02:20:03.502Z,24.02
2022-07-29T02:20:37.204Z,23.91
2022-07-29T02:21:15.080Z,23.90
2022-07-29T02:21:48.711Z,23.90
2022-07-29T02:22:22.082Z,23.87
2022-07-29T02:22:55.784Z,23.92
2022-07-29T02:23:28.494Z,23.98
2022-07-29T02:24:02.133Z,24.02
2022-07-29T02:24:36.608Z,24.00
2022-07-29T02:25:14.167Z,23.96
2022-07-29T02:25:50.136Z,23.95
2022-07-29T02:26:25.522Z,23.91
2022-07-29T02:27:01.226Z,23.90
2022-07-29T02:27:35.591Z,23.88
2022-07-29T02:28:08.804Z,23.88
2022-07-29T02:28:42.028Z,23.84
2022-07-29T02:29:16.368Z,23.85
2022-07-29T02:29:50.155Z,23.80
2022-07-29T02:30:24.194Z,23.72
2022-07-29T02:31:03.259Z,23.62
2022-07-29T02:31:37.701Z,23.66
2022-07-29T02:32:14.338Z,23.56
2022-07-29T02:32:49.353Z,23.50
2022-07-29T02:33:22.624Z,23.53
2022-07-29T02:33:55.809Z,23.45
2022-07-29T02:34:29.383Z,23.42
2022-07-29T02:35:02.637Z,23.40
2022-07-29T02:35:35.116Z,23.45
2022-07-29T02:36:08.241Z,23.49
2022-07-29T02:36:41.542Z,23.49
2022-07-29T02:37:14.496Z,23.50
2022-07-29T02:38:07.742Z,23.51
2022-07-29T02:38:51.334Z,23.53
2022-07-29T02:39:25.431Z,23.54
2022-07-29T02:39:59.641Z,23.55
2022-07-29T02:40:31.600Z,23.47
2022-07-29T02:41:09.028Z,23.52
2022-07-29T02:41:48.810Z,23.50
2022-07-29T02:42:23.788Z,23.39
2022-07-29T02:42:56.349Z,23.30
2022-07-29T02:43:31.065Z,23.28
2022-07-29T02:44:07.280Z,23.29
2022-07-29T02:44:39.256Z,23.34
2022-07-29T02:45:11.809Z,23.34
2022-07-29T02:45:44.436Z,23.31
2022-07-29T02:46:28.333Z,23.29
2022-07-29T02:47:20.294Z,23.30
2022-07-29T02:47:54.260Z,23.30
2022-07-29T02:48:37.512Z,23.27
2022-07-29T02:49:43.427Z,23.00
2022-07-29T02:50:38.638Z,22.94
2022-07-29T02:51:43.538Z,22.95
2022-07-29T02:52:25.608Z,22.93
2022-07-29T02:53:06.580Z,22.90
2022-07-29T02:53:41.022Z,22.89
2022-07-29T02:54:31.982Z,22.92
2022-07-29T02:55:16.610Z,22.93
2022-07-29T02:55:51.524Z,22.98
2022-07-29T02:56:28.709Z,22.99
2022-07-29T02:57:06.869Z,22.99
2022-07-29T02:57:54.086Z,23.00
2022-07-29T02:58:33.093Z,23.02
2022-07-29T02:59:10.620Z,22.99
2022-07-29T02:59:46.302Z,22.99
2022-07-29T03:00:18.802Z,22.94
2022-07-29T03:00:52.715Z,22.91
2022-07-29T03:01:26.697Z,22.99
2022-07-29T03:02:01.367Z,23.02
2022-07-29T03:02:43.228Z,22.92
2022-07-29T03:03:19.121Z,22.73
2022-07-29T03:03:54.900Z,22.63
2022-07-29T03:04:29.548Z,22.68
2022-07-29T03:05:03.456Z,22.75
2022-07-29T03:05:36.209Z,22.78
2022-07-29T03:06:09.618Z,22.74
2022-07-29T03:07:02.278Z,22.64
2022-07-29T03:07:36.177Z,22.51
2022-07-29T03:08:10.672Z,22.32
2022-07-29T03:08:44.552Z,22.43
2022-07-29T03:09:17.007Z,22.47
2022-07-29T03:09:50.981Z,22.50
2022-07-29T03:10:24.293Z,22.40
2022-07-29T03:10:56.758Z,22.31
2022-07-29T03:11:45.874Z,22.36
2022-07-29T03:12:23.186Z,22.32
2022-07-29T03:12:56.955Z,22.31
2022-07-29T03:13:30.527Z,22.35
2022-07-29T03:14:02.879Z,22.29
2022-07-29T03:14:36.113Z,22.33
2022-07-29T03:15:09.424Z,22.35
2022-07-29T03:15:44.692Z,22.43
2022-07-29T03:16:19.557Z,22.44
2022-07-29T03:16:52.292Z,22.50
2022-07-29T03:17:24.664Z,22.37
2022-07-29T03:17:57.683Z,22.27
2022-07-29T03:18:31.384Z,22.28
2022-07-29T03:19:04.858Z,22.24
2022-07-29T03:19:37.025Z,22.28
2022-07-29T03:20:10.521Z,22.33
2022-07-29T03:20:43.273Z,22.34
2022-07-29T03:21:15.232Z,22.41
2022-07-29T03:21:47.393Z,22.40
2022-07-29T03:22:19.891Z,22.40
2022-07-29T03:22:52.054Z,22.37
2022-07-29T03:23:25.114Z,22.39
2022-07-29T03:23:57.098Z,22.39
2022-07-29T03:24:36.594Z,22.42
2022-07-29T03:25:09.741Z,22.46
2022-07-29T03:25:41.960Z,22.53
2022-07-29T03:26:14.384Z,22.54
2022-07-29T03:26:46.414Z,22.53
2022-07-29T03:27:18.472Z,22.43
2022-07-29T03:27:51.238Z,22.44
2022-07-29T03:28:24.054Z,22.38
2022-07-29T03:28:58.959Z,22.27
2022-07-29T03:29:33.601Z,22.31
2022-07-29T03:30:08.910Z,22.39
2022-07-29T03:30:41.349Z,22.45
2022-07-29T03:31:16.530Z,22.56
2022-07-29T03:31:48.554Z,22.60
2022-07-29T03:32:23.874Z,22.56
2022-07-29T03:32:58.772Z,22.49
2022-07-29T03:33:31.403Z,22.46
2022-07-29T03:34:03.871Z,22.52
2022-07-29T03:34:37.677Z,22.54
2022-07-29T03:35:10.030Z,22.44
2022-07-29T03:35:42.582Z,22.42
2022-07-29T03:36:14.558Z,22.44
2022-07-29T03:36:46.613Z,22.45
2022-07-29T03:37:18.547Z,22.42
2022-07-29T03:37:50.590Z,22.33
2022-07-29T03:38:26.164Z,22.26
2022-07-29T03:38:59.117Z,22.30
2022-07-29T03:39:35.379Z,22.32
2022-07-29T03:40:10.231Z,22.34
2022-07-29T03:40:47.705Z,22.25
2022-07-29T03:41:22.513Z,22.25
2022-07-29T03:41:57.303Z,22.31
2022-07-29T03:42:34.813Z,22.37
2022-07-29T03:43:08.199Z,22.40
2022-07-29T03:43:49.807Z,22.41
2022-07-29T03:44:23.102Z,22.34
2022-07-29T03:44:58.068Z,22.39
2022-07-29T03:45:32.829Z,22.35
2022-07-29T03:46:08.895Z,22.28
2022-07-29T03:46:44.380Z,22.20
2022-07-29T03:47:20.007Z,22.20
2022-07-29T03:48:01.192Z,22.23
2022-07-29T03:48:36.689Z,22.22
2022-07-29T03:49:11.425Z,22.17
2022-07-29T03:49:45.555Z,22.16
2022-07-29T03:50:20.365Z,22.13
2022-07-29T03:50:52.928Z,22.13
2022-07-29T03:51:33.505Z,22.16
2022-07-29T03:52:07.166Z,22.12
2022-07-29T03:52:39.363Z,21.95
2022-07-29T03:53:11.784Z,22.00
2022-07-29T03:53:43.869Z,22.05
2022-07-29T03:54:16.198Z,22.11
2022-07-29T03:54:48.753Z,22.16
2022-07-29T03:55:21.142Z,22.17
2022-07-29T03:55:59.296Z,22.23
2022-07-29T03:56:35.630Z,22.24
2022-07-29T03:57:10.621Z,22.22
2022-07-29T03:57:43.687Z,22.21
2022-07-29T03:58:17.356Z,22.30
2022-07-29T03:58:52.673Z,22.31
2022-07-29T03:59:25.135Z,22.37
2022-07-29T03:59:57.728Z,22.39
2022-07-29T04:00:30.698Z,22.35
2022-07-29T04:01:03.495Z,22.32
2022-07-29T04:01:36.712Z,22.31
2022-07-29T04:02:12.060Z,22.33
2022-07-29T04:02:49.786Z,22.36
2022-07-29T04:03:22.627Z,22.23
2022-07-29T04:03:54.867Z,22.19
2022-07-29T04:04:27.373Z,22.24
2022-07-29T04:05:00.921Z,22.32
2022-07-29T04:05:32.825Z,22.37
2022-07-29T04:06:07.715Z,22.36
2022-07-29T04:06:41.686Z,22.36
2022-07-29T04:07:14.836Z,22.41
2022-07-29T04:07:48.255Z,22.43
2022-07-29T04:08:20.206Z,22.44
2022-07-29T04:08:52.221Z,22.47
2022-07-29T04:09:24.529Z,22.51
2022-07-29T04:09:56.537Z,22.46
2022-07-29T04:10:31.567Z,22.45
2022-07-29T04:11:05.639Z,22.45
2022-07-29T04:12:01.601Z,22.48
2022-07-29T04:12:34.039Z,22.50
2022-07-29T04:13:05.973Z,22.53
2022-07-29T04:13:37.909Z,22.47
2022-07-29T04:14:09.870Z,22.42
2022-07-29T04:14:41.754Z,22.48
2022-07-29T04:15:13.679Z,22.54
2022-07-29T04:15:45.615Z,22.56
2022-07-29T04:16:17.896Z,22.59
2022-07-29T04:16:49.901Z,22.64
2022-07-29T04:17:22.125Z,22.66
2022-07-29T04:17:54.051Z,22.62
2022-07-29T04:18:26.320Z,22.53
2022-07-29T04:18:58.298Z,22.51
2022-07-29T04:19:31.123Z,22.56
2022-07-29T04:20:03.606Z,22.51
2022-07-29T04:20:35.587Z,22.42
2022-07-29T04:21:07.490Z,22.44
2022-07-29T04:21:42.797Z,22.50
2022-07-29T04:22:14.695Z,22.58
2022-07-29T04:22:46.612Z,22.62
2022-07-29T04:23:18.563Z,22.65
2022-07-29T04:23:53.847Z,22.65
2022-07-29T04:24:26.191Z,22.71
2022-07-29T04:25:01.770Z,22.77
2022-07-29T04:25:39.644Z,22.78
2022-07-29T04:26:11.929Z,22.77
2022-07-29T04:26:44.205Z,22.76
2022-07-29T04:27:16.118Z,22.79
2022-07-29T04:28:03.672Z,22.79
2022-07-29T04:28:35.577Z,22.66
2022-07-29T04:29:07.511Z,22.47
2022-07-29T04:29:56.360Z,22.53
2022-07-29T04:30:30.694Z,22.62
2022-07-29T04:31:02.911Z,22.67
2022-07-29T04:31:35.067Z,22.77
2022-07-29T04:32:07.432Z,22.84
2022-07-29T04:32:39.428Z,22.84
2022-07-29T04:33:11.717Z,22.83
2022-07-29T04:33:43.676Z,22.82
2022-07-29T04:34:15.865Z,22.84
2022-07-29T04:34:48.901Z,22.89
2022-07-29T04:35:21.924Z,22.88
2022-07-29T04:35:55.101Z,22.81
2022-07-29T04:36:29.293Z,22.85
2022-07-29T04:37:02.035Z,22.88
2022-07-29T04:37:34.324Z,22.88
2022-07-29T04:38:07.113Z,22.90
2022-07-29T04:38:39.624Z,22.92
2022-07-29T04:39:11.554Z,22.98
2022-07-29T04:39:43.478Z,23.04
2022-07-29T04:40:15.397Z,23.05
2022-07-29T04:40:47.335Z,23.02
2022-07-29T04:41:21.748Z,23.01
2022-07-29T04:41:54.933Z,22.96
2022-07-29T04:42:29.442Z,22.97
2022-07-29T04:43:03.219Z,23.02
2022-07-29T04:43:37.874Z,22.99
2022-07-29T04:44:09.789Z,22.97
2022-07-29T04:44:43.139Z,22.97
2022-07-29T04:45:16.123Z,22.97
2022-07-29T04:45:48.145Z,22.97
2022-07-29T04:46:20.285Z,23.03
2022-07-29T04:46:52.276Z,23.04
2022-07-29T04:47:24.252Z,23.04
2022-07-29T04:47:56.899Z,23.08
2022-07-29T04:48:29.302Z,23.08
2022-07-29T04:49:01.580Z,23.08
2022-07-29T04:49:33.541Z,23.11
2022-07-29T04:50:06.943Z,23.11
2022-07-29T04:50:39.928Z,23.07
2022-07-29T04:51:11.824Z,23.03
2022-07-29T04:51:43.790Z,23.08
2022-07-29T04:52:15.748Z,23.15
2022-07-29T04:52:47.710Z,23.15
2022-07-29T04:53:19.743Z,23.16
2022-07-29T04:53:51.969Z,23.12
2022-07-29T04:54:23.936Z,23.15
2022-07-29T04:54:57.655Z,23.19
2022-07-29T04:55:29.547Z,23.24
2022-07-29T04:56:01.500Z,23.27
2022-07-29T04:56:33.451Z,23.30
2022-07-29T04:57:05.353Z,23.29
2022-07-29T04:57:37.330Z,23.23
2022-07-29T04:58:09.382Z,23.25
2022-07-29T04:58:41.274Z,23.20
2022-07-29T04:59:13.485Z,23.21
2022-07-29T04:59:45.397Z,23.25
2022-07-29T05:00:17.516Z,23.27
2022-07-29T05:00:49.896Z,23.30
2022-07-29T05:01:21.943Z,23.35
2022-07-29T05:01:53.993Z,23.38
2022-07-29T05:02:25.973Z,23.40
2022-07-29T05:02:58.001Z,23.29
2022-07-29T05:03:30.025Z,23.31
2022-07-29T05:04:01.918Z,23.31
2022-07-29T05:04:34.140Z,23.35
2022-07-29T05:05:06.430Z,23.34
2022-07-29T05:05:38.882Z,23.35
2022-07-29T05:06:10.812Z,23.42
2022-07-29T05:06:42.916Z,23.40
2022-07-29T05:07:15.260Z,23.46
2022-07-29T05:07:47.144Z,23.51
2022-07-29T05:08:19.067Z,23.48
2022-07-29T05:08:51.002Z,23.53
2022-07-29T05:09:22.964Z,23.59
2022-07-29T05:09:57.898Z,23.63
2022-07-29T05:10:29.939Z,23.70
2022-07-29T05:11:12.079Z,23.73
2022-07-29T05:11:44.981Z,23.72
2022-07-29T05:12:16.999Z,23.79
2022-07-29T05:12:49.122Z,23.77
2022-07-29T05:13:21.473Z,23.75
2022-07-29T05:13:53.370Z,23.77
2022-07-29T05:14:25.344Z,23.84
2022-07-29T05:14:57.572Z,23.87
2022-07-29T05:15:29.571Z,23.92
2022-07-29T05:16:01.591Z,24.01
2022-07-29T05:16:34.498Z,24.06
2022-07-29T05:17:06.468Z,24.04
2022-07-29T05:17:38.390Z,24.09
2022-07-29T05:18:10.354Z,24.13
2022-07-29T05:18:43.265Z,24.14
2022-07-29T05:19:15.768Z,24.21
2022-07-29T05:19:47.730Z,24.26
2022-07-29T05:20:19.939Z,24.30
2022-07-29T05:20:52.445Z,24.26
2022-07-29T05:21:24.374Z,24.29
2022-07-29T05:21:56.272Z,24.36
2022-07-29T05:22:28.379Z,24.36
2022-07-29T05:23:01.492Z,24.22
2022-07-29T05:23:33.440Z,24.27
2022-07-29T05:24:05.599Z,24.27
2022-07-29T05:24:37.527Z,24.40
2022-07-29T05:25:10.639Z,24.52
2022-07-29T05:25:44.652Z,24.59
2022-07-29T05:26:16.992Z,24.66
2022-07-29T05:26:48.938Z,24.72
2022-07-29T05:27:20.952Z,24.80
2022-07-29T05:27:53.412Z,24.83
2022-07-29T05:28:25.370Z,24.85
2022-07-29T05:28:58.055Z,24.88
2022-07-29T05:29:42.794Z,24.90
2022-07-29T05:30:17.171Z,24.92
2022-07-29T05:30:50.522Z,24.86
2022-07-29T05:31:22.950Z,24.75
2022-07-29T05:31:54.962Z,24.70
2022-07-29T05:32:26.862Z,24.78
2022-07-29T05:32:58.780Z,24.83
2022-07-29T05:33:34.646Z,24.95
2022-07-29T05:34:08.733Z,24.90
2022-07-29T05:34:50.712Z,25.04
2022-07-29T05:35:23.592Z,25.07
2022-07-29T05:36:00.333Z,25.08
2022-07-29T05:36:32.943Z,25.08
2022-07-29T05:37:04.901Z,25.09
2022-07-29T05:37:36.826Z,25.09
2022-07-29T05:38:08.907Z,24.97
2022-07-29T05:38:40.805Z,25.05
2022-07-29T05:39:13.942Z,25.09
2022-07-29T05:39:48.862Z,25.17
2022-07-29T05:40:22.889Z,25.23
2022-07-29T05:40:58.210Z,25.31
2022-07-29T05:41:33.257Z,25.36
2022-07-29T05:42:09.472Z,25.36
2022-07-29T05:42:41.471Z,25.44
2022-07-29T05:43:13.394Z,25.50
2022-07-29T05:43:45.576Z,25.53
2022-07-29T05:44:17.936Z,25.50
2022-07-29T05:44:49.951Z,25.42
2022-07-29T05:45:21.917Z,25.37
2022-07-29T05:45:53.860Z,25.39
2022-07-29T05:46:26.168Z,25.39
2022-07-29T05:46:58.082Z,25.37
2022-07-29T05:47:30.088Z,25.41
2022-07-29T05:48:02.025Z,25.53
2022-07-29T05:48:33.898Z,25.57
2022-07-29T05:49:07.454Z,25.59
2022-07-29T05:49:39.584Z,25.67
2022-07-29T05:50:11.562Z,25.79
2022-07-29T05:50:44.225Z,25.80
2022-07-29T05:51:19.629Z,25.87
2022-07-29T05:51:51.908Z,25.86
2022-07-29T05:52:24.302Z,25.74
2022-07-29T05:52:56.280Z,25.80
2022-07-29T05:53:28.409Z,25.92
2022-07-29T05:54:00.392Z,25.93
2022-07-29T05:54:32.346Z,25.88
2022-07-29T05:55:06.555Z,25.91
2022-07-29T05:55:39.854Z,25.92
2022-07-29T05:56:12.344Z,25.91
2022-07-29T05:56:44.315Z,25.98
2022-07-29T05:57:25.324Z,26.08
2022-07-29T05:57:57.090Z,26.04
2022-07-29T05:58:29.196Z,26.06
2022-07-29T05:59:01.098Z,25.94
2022-07-29T05:59:37.491Z,25.97
2022-07-29T06:00:10.306Z,26.04
2022-07-29T06:00:44.513Z,26.11
2022-07-29T06:01:17.937Z,26.18
2022-07-29T06:01:49.935Z,26.27
2022-07-29T06:02:21.900Z,26.29
2022-07-29T06:02:54.101Z,26.25
2022-07-29T06:03:26.627Z,26.16
2022-07-29T06:03:58.820Z,26.01
2022-07-29T06:04:30.841Z,25.99
2022-07-29T06:05:02.892Z,26.14
2022-07-29T06:05:34.828Z,26.21
2022-07-29T06:06:07.275Z,26.27
2022-07-29T06:06:39.681Z,26.21
2022-07-29T06:07:12.363Z,26.08
2022-07-29T06:07:49.997Z,26.13
2022-07-29T06:08:23.154Z,26.14
2022-07-29T06:08:55.122Z,26.17
2022-07-29T06:09:27.097Z,26.19
2022-07-29T06:09:59.049Z,26.22
2022-07-29T06:10:31.018Z,26.18
2022-07-29T06:11:04.671Z,26.08
2022-07-29T06:11:36.629Z,26.04
2022-07-29T06:12:09.908Z,26.03
2022-07-29T06:12:41.832Z,26.01
2022-07-29T06:13:14.049Z,26.14
2022-07-29T06:13:45.958Z,26.24
2022-07-29T06:14:18.163Z,26.21
2022-07-29T06:14:54.193Z,26.30
2022-07-29T06:15:26.329Z,26.35
2022-07-29T06:15:58.401Z,26.34
2022-07-29T06:16:31.380Z,26.25
2022-07-29T06:17:03.352Z,26.35
2022-07-29T06:17:35.722Z,26.44
2022-07-29T06:18:10.210Z,26.43
2022-07-29T06:18:42.998Z,26.46
2022-07-29T06:19:14.908Z,26.52
2022-07-29T06:19:47.230Z,26.63
2022-07-29T06:20:19.422Z,26.71
2022-07-29T06:20:59.249Z,26.72
2022-07-29T06:21:31.165Z,26.65
2022-07-29T06:22:03.207Z,26.65
2022-07-29T06:22:35.430Z,26.71
2022-07-29T06:23:07.411Z,26.71
2022-07-29T06:23:40.015Z,26.75
2022-07-29T06:24:13.879Z,26.77
2022-07-29T06:24:46.026Z,26.79
2022-07-29T06:25:17.979Z,26.87
2022-07-29T06:25:50.510Z,26.74
2022-07-29T06:26:30.238Z,26.75
2022-07-29T06:27:03.598Z,26.52
2022-07-29T06:27:35.822Z,26.62
2022-07-29T06:28:08.103Z,26.76
2022-07-29T06:28:40.039Z,26.84
2022-07-29T06:29:12.375Z,26.88
2022-07-29T06:29:44.328Z,26.77
2022-07-29T06:30:16.239Z,26.79
2022-07-29T06:30:48.226Z,26.78
2022-07-29T06:31:20.389Z,26.74
2022-07-29T06:31:52.339Z,26.72
2022-07-29T06:32:27.384Z,26.65
2022-07-29T06:33:01.298Z,26.66
2022-07-29T06:33:33.236Z,26.65
2022-07-29T06:34:05.571Z,26.65
2022-07-29T06:34:37.720Z,26.71
2022-07-29T06:35:37.688Z,26.73
2022-07-29T06:36:05.351Z,26.71
2022-07-29T06:36:39.797Z,26.72
2022-07-29T06:37:15.582Z,26.83
2022-07-29T06:37:47.919Z,26.84
2022-07-29T06:38:31.439Z,26.93
2022-07-29T06:39:09.871Z,26.89
2022-07-29T06:39:43.775Z,26.91
2022-07-29T06:40:34.485Z,26.91
2022-07-29T06:41:13.480Z,26.89
2022-07-29T06:41:51.552Z,27.01
2022-07-29T06:42:23.465Z,26.94
2022-07-29T06:42:55.385Z,26.71
2022-07-29T06:43:32.378Z,26.77
2022-07-29T06:44:05.692Z,26.95
2022-07-29T06:44:37.668Z,27.06
2022-07-29T06:45:10.948Z,26.97
2022-07-29T06:45:43.912Z,27.06
2022-07-29T06:46:18.492Z,27.13
2022-07-29T06:46:52.564Z,27.21
2022-07-29T06:47:24.449Z,27.17
2022-07-29T06:47:56.413Z,27.05
2022-07-29T06:48:29.927Z,27.12
2022-07-29T06:49:03.295Z,27.25
2022-07-29T06:49:35.329Z,27.32
2022-07-29T06:50:07.806Z,27.27
2022-07-29T06:50:40.757Z,27.26
2022-07-29T06:51:12.987Z,27.27
2022-07-29T06:51:44.981Z,27.31
2022-07-29T06:52:16.886Z,27.33
2022-07-29T06:52:49.156Z,27.39
2022-07-29T06:53:21.423Z,27.47
2022-07-29T06:53:59.322Z,27.38
2022-07-29T06:54:34.418Z,27.43
2022-07-29T06:55:06.943Z,27.47
2022-07-29T06:55:39.000Z,27.42
2022-07-29T06:56:11.028Z,27.33
2022-07-29T06:56:44.030Z,27.33
2022-07-29T06:57:15.937Z,27.39
2022-07-29T06:57:47.872Z,27.43
2022-07-29T06:58:23.572Z,27.30
2022-07-29T06:59:01.516Z,27.24
2022-07-29T06:59:35.779Z,27.23
2022-07-29T07:00:08.846Z,27.16
2022-07-29T07:00:41.546Z,27.28
2022-07-29T07:01:13.976Z,27.37
2022-07-29T07:01:46.144Z,27.39
2022-07-29T07:02:18.228Z,27.44
2022-07-29T07:02:50.268Z,27.45
2022-07-29T07:03:22.485Z,27.33
2022-07-29T07:03:54.386Z,27.22
2022-07-29T07:04:26.571Z,27.14
2022-07-29T07:04:59.703Z,27.11
2022-07-29T07:05:31.652Z,27.14
2022-07-29T07:06:04.373Z,27.18
2022-07-29T07:06:36.980Z,27.01
2022-07-29T07:07:08.967Z,26.90
2022-07-29T07:07:40.988Z,27.02
2022-07-29T07:08:13.898Z,27.12
2022-07-29T07:08:45.811Z,27.09
2022-07-29T07:09:17.703Z,26.99
2022-07-29T07:09:49.925Z,27.14
2022-07-29T07:10:21.832Z,27.25
2022-07-29T07:10:57.309Z,27.26
2022-07-29T07:11:29.761Z,27.32
2022-07-29T07:12:01.656Z,27.30
2022-07-29T07:12:33.577Z,27.28
2022-07-29T07:13:06.362Z,27.06
2022-07-29T07:13:38.722Z,26.96
2022-07-29T07:14:10.653Z,26.93
2022-07-29T07:14:42.851Z,27.08
2022-07-29T07:15:15.067Z,27.03
2022-07-29T07:15:49.369Z,27.07
2022-07-29T07:16:21.379Z,27.11
2022-07-29T07:16:53.371Z,27.19
2022-07-29T07:17:26.767Z,27.28
2022-07-29T07:17:58.722Z,27.32
2022-07-29T07:18:30.854Z,27.26
2022-07-29T07:19:02.886Z,27.40
2022-07-29T07:19:35.076Z,27.37
2022-07-29T07:20:07.463Z,27.40
2022-07-29T07:20:41.355Z,27.53
2022-07-29T07:21:19.123Z,27.67
2022-07-29T07:21:51.457Z,27.69
2022-07-29T07:22:23.431Z,27.79
2022-07-29T07:22:55.370Z,27.79
2022-07-29T07:23:27.327Z,27.82
2022-07-29T07:23:59.830Z,27.72
2022-07-29T07:24:31.795Z,27.82
2022-07-29T07:25:03.921Z,27.66
2022-07-29T07:25:36.044Z,27.59
2022-07-29T07:26:08.345Z,27.58
2022-07-29T07:26:41.081Z,27.77
2022-07-29T07:27:13.005Z,27.96